sensor_id;sensor_type;location;lat;lon;timestamp;temperature;humidity
46123;DHT22;31856;-35.404;149.120;2023-07-02T03:29:36;12.40;54.20
46123;DHT22;31856;-35.404;149.120;2023-07-02T03:32:06;12.50;54.40
46123;DHT22;31856;-35.404;149.120;2023-07-02T03:34:37;12.70;53.00
46123;DHT22;31856;-35.404;149.120;2023-07-02T03:37:07;12.90;53.20
46123;DHT22;31856;-35.404;149.120;2023-07-02T03:39:37;13.00;50.20
46123;DHT22;31856;-35.404;149.120;2023-07-02T03:42:07;13.10;47.30
46123;DHT22;31856;-35.404;149.120;2023-07-02T03:44:36;13.20;46.70
46123;DHT22;31856;-35.404;149.120;2023-07-02T03:47:06;13.30;46.00
46123;DHT22;31856;-35.404;149.120;2023-07-02T03:49:38;13.50;45.80
46123;DHT22;31856;-35.404;149.120;2023-07-02T03:52:07;13.50;45.40
46123;DHT22;31856;-35.404;149.120;2023-07-02T03:54:39;13.50;45.50
46123;DHT22;31856;-35.404;149.120;2023-07-02T03:57:09;13.60;45.80
46123;DHT22;31856;-35.404;149.120;2023-07-02T03:59:38;13.50;46.00
46123;DHT22;31856;-35.404;149.120;2023-07-02T04:02:08;13.60;46.30
46123;DHT22;31856;-35.404;149.120;2023-07-02T04:04:37;13.60;46.50
46123;DHT22;31856;-35.404;149.120;2023-07-02T04:07:07;13.60;46.10
46123;DHT22;31856;-35.404;149.120;2023-07-02T04:09:37;13.70;46.30
46123;DHT22;31856;-35.404;149.120;2023-07-02T04:12:06;13.70;46.00
46123;DHT22;31856;-35.404;149.120;2023-07-02T04:14:36;13.80;46.20
46123;DHT22;31856;-35.404;149.120;2023-07-02T04:17:05;13.80;46.10
46123;DHT22;31856;-35.404;149.120;2023-07-02T04:19:36;13.80;45.00
46123;DHT22;31856;-35.404;149.120;2023-07-02T04:22:06;13.90;45.60
46123;DHT22;31856;-35.404;149.120;2023-07-02T04:24:36;13.90;45.60
46123;DHT22;31856;-35.404;149.120;2023-07-02T04:27:06;14.00;46.00
46123;DHT22;31856;-35.404;149.120;2023-07-02T04:29:56;14.00;44.80
46123;DHT22;31856;-35.404;149.120;2023-07-02T04:32:25;14.10;45.90
46123;DHT22;31856;-35.404;149.120;2023-07-02T04:34:55;14.10;45.20
46123;DHT22;31856;-35.404;149.120;2023-07-02T04:37:24;14.10;45.60
46123;DHT22;31856;-35.404;149.120;2023-07-02T04:39:54;14.20;45.40
46123;DHT22;31856;-35.404;149.120;2023-07-02T04:42:23;14.20;44.30
46123;DHT22;31856;-35.404;149.120;2023-07-02T04:44:56;14.20;44.50
46123;DHT22;31856;-35.404;149.120;2023-07-02T04:47:31;14.20;45.40
46123;DHT22;31856;-35.404;149.120;2023-07-02T04:50:01;14.30;45.00
46123;DHT22;31856;-35.404;149.120;2023-07-02T04:52:32;14.30;45.80
46123;DHT22;31856;-35.404;149.120;2023-07-02T04:55:02;14.30;45.00
46123;DHT22;31856;-35.404;149.120;2023-07-02T04:57:32;14.30;45.10
46123;DHT22;31856;-35.404;149.120;2023-07-02T05:00:01;14.40;45.20
46123;DHT22;31856;-35.404;149.120;2023-07-02T05:02:32;14.40;45.10
46123;DHT22;31856;-35.404;149.120;2023-07-02T05:05:02;14.40;45.40
46123;DHT22;31856;-35.404;149.120;2023-07-02T05:07:31;14.40;46.00
46123;DHT22;31856;-35.404;149.120;2023-07-02T05:10:01;14.50;45.50
46123;DHT22;31856;-35.404;149.120;2023-07-02T05:12:30;14.50;44.80
46123;DHT22;31856;-35.404;149.120;2023-07-02T05:15:00;14.50;44.90
46123;DHT22;31856;-35.404;149.120;2023-07-02T05:17:29;14.40;45.20
46123;DHT22;31856;-35.404;149.120;2023-07-02T05:20:00;14.50;45.10
46123;DHT22;31856;-35.404;149.120;2023-07-02T05:22:30;14.40;45.60
46123;DHT22;31856;-35.404;149.120;2023-07-02T05:24:59;14.40;45.40
46123;DHT22;31856;-35.404;149.120;2023-07-02T05:27:28;14.30;46.00
46123;DHT22;31856;-35.404;149.120;2023-07-02T05:29:58;14.30;46.80
46123;DHT22;31856;-35.404;149.120;2023-07-02T05:32:28;14.20;47.10
46123;DHT22;31856;-35.404;149.120;2023-07-02T05:34:57;14.10;47.50
46123;DHT22;31856;-35.404;149.120;2023-07-02T05:37:27;14.10;47.70
46123;DHT22;31856;-35.404;149.120;2023-07-02T05:39:57;14.10;48.00
46123;DHT22;31856;-35.404;149.120;2023-07-02T05:42:26;14.10;48.60
46123;DHT22;31856;-35.404;149.120;2023-07-02T05:44:57;14.10;48.40
46123;DHT22;31856;-35.404;149.120;2023-07-02T05:47:26;14.00;48.00
46123;DHT22;31856;-35.404;149.120;2023-07-02T05:49:57;13.90;46.90
46123;DHT22;31856;-35.404;149.120;2023-07-02T05:52:26;13.90;47.10
46123;DHT22;31856;-35.404;149.120;2023-07-02T05:54:56;13.80;46.80
46123;DHT22;31856;-35.404;149.120;2023-07-02T05:57:26;13.80;46.60
46123;DHT22;31856;-35.404;149.120;2023-07-02T05:59:56;13.70;47.00
46123;DHT22;31856;-35.404;149.120;2023-07-02T06:02:25;13.60;46.80
46123;DHT22;31856;-35.404;149.120;2023-07-02T06:04:55;13.50;47.10
46123;DHT22;31856;-35.404;149.120;2023-07-02T06:07:27;13.40;48.20
46123;DHT22;31856;-35.404;149.120;2023-07-02T06:09:56;13.30;47.90
46123;DHT22;31856;-35.404;149.120;2023-07-02T06:12:26;13.30;48.30
46123;DHT22;31856;-35.404;149.120;2023-07-02T06:14:56;13.20;49.10
46123;DHT22;31856;-35.404;149.120;2023-07-02T06:17:25;13.10;49.80
46123;DHT22;31856;-35.404;149.120;2023-07-02T06:19:55;13.00;49.30
46123;DHT22;31856;-35.404;149.120;2023-07-02T06:22:24;12.90;49.70
46123;DHT22;31856;-35.404;149.120;2023-07-02T06:24:54;12.80;50.20
46123;DHT22;31856;-35.404;149.120;2023-07-02T06:27:23;12.70;51.10
46123;DHT22;31856;-35.404;149.120;2023-07-02T06:29:53;12.50;51.00
46123;DHT22;31856;-35.404;149.120;2023-07-02T06:32:22;12.40;52.20
46123;DHT22;31856;-35.404;149.120;2023-07-02T06:34:53;12.30;53.80
46123;DHT22;31856;-35.404;149.120;2023-07-02T06:37:22;12.10;55.10
46123;DHT22;31856;-35.404;149.120;2023-07-02T06:39:52;12.00;55.90
46123;DHT22;31856;-35.404;149.120;2023-07-02T06:42:21;11.90;56.60
46123;DHT22;31856;-35.404;149.120;2023-07-02T06:44:51;11.70;58.00
46123;DHT22;31856;-35.404;149.120;2023-07-02T06:47:20;11.50;58.90
46123;DHT22;31856;-35.404;149.120;2023-07-02T06:49:51;11.40;59.90
46123;DHT22;31856;-35.404;149.120;2023-07-02T06:52:21;11.30;60.40
46123;DHT22;31856;-35.404;149.120;2023-07-02T06:54:51;11.20;60.70
46123;DHT22;31856;-35.404;149.120;2023-07-02T06:57:21;11.10;61.40
46123;DHT22;31856;-35.404;149.120;2023-07-02T06:59:52;10.90;61.90
46123;DHT22;31856;-35.404;149.120;2023-07-02T07:02:28;10.80;62.10
46123;DHT22;31856;-35.404;149.120;2023-07-02T07:04:58;10.80;62.00
46123;DHT22;31856;-35.404;149.120;2023-07-02T07:07:27;10.70;62.20
46123;DHT22;31856;-35.404;149.120;2023-07-02T07:09:57;10.50;62.60
46123;DHT22;31856;-35.404;149.120;2023-07-02T07:12:26;10.50;62.60
46123;DHT22;31856;-35.404;149.120;2023-07-02T07:14:56;10.40;63.20
46123;DHT22;31856;-35.404;149.120;2023-07-02T07:17:26;10.20;63.90
46123;DHT22;31856;-35.404;149.120;2023-07-02T07:19:55;10.10;64.10
46123;DHT22;31856;-35.404;149.120;2023-07-02T07:22:25;10.10;64.30
46123;DHT22;31856;-35.404;149.120;2023-07-02T07:24:54;10.00;64.50
46123;DHT22;31856;-35.404;149.120;2023-07-02T07:27:24;9.90;64.80
46123;DHT22;31856;-35.404;149.120;2023-07-02T07:29:54;9.80;65.00
46123;DHT22;31856;-35.404;149.120;2023-07-02T07:32:23;9.70;65.50
46123;DHT22;31856;-35.404;149.120;2023-07-02T07:34:53;9.60;65.70
46123;DHT22;31856;-35.404;149.120;2023-07-02T07:37:23;9.50;65.90
46123;DHT22;31856;-35.404;149.120;2023-07-02T07:39:54;9.50;66.30
46123;DHT22;31856;-35.404;149.120;2023-07-02T07:42:23;9.40;66.40
46123;DHT22;31856;-35.404;149.120;2023-07-02T07:44:53;9.30;66.50
46123;DHT22;31856;-35.404;149.120;2023-07-02T07:47:22;9.30;66.50
46123;DHT22;31856;-35.404;149.120;2023-07-02T07:49:52;9.20;66.80
46123;DHT22;31856;-35.404;149.120;2023-07-02T07:52:21;9.10;66.70
46123;DHT22;31856;-35.404;149.120;2023-07-02T07:54:51;9.00;66.60
46123;DHT22;31856;-35.404;149.120;2023-07-02T07:57:20;9.00;66.80
46123;DHT22;31856;-35.404;149.120;2023-07-02T07:59:50;8.90;66.80
46123;DHT22;31856;-35.404;149.120;2023-07-02T08:02:19;8.80;67.20
46123;DHT22;31856;-35.404;149.120;2023-07-02T08:04:52;8.80;67.10
46123;DHT22;31856;-35.404;149.120;2023-07-02T08:07:24;8.80;67.30
46123;DHT22;31856;-35.404;149.120;2023-07-02T08:09:53;8.70;67.20
46123;DHT22;31856;-35.404;149.120;2023-07-02T08:12:24;8.60;67.30
46123;DHT22;31856;-35.404;149.120;2023-07-02T08:14:55;8.60;67.20
46123;DHT22;31856;-35.404;149.120;2023-07-02T08:17:25;8.40;67.50
46123;DHT22;31856;-35.404;149.120;2023-07-02T08:19:55;8.50;67.30
46123;DHT22;31856;-35.404;149.120;2023-07-02T08:22:24;8.50;66.90
46123;DHT22;31856;-35.404;149.120;2023-07-02T08:24:54;8.40;67.20
46123;DHT22;31856;-35.404;149.120;2023-07-02T08:27:24;8.30;67.60
46123;DHT22;31856;-35.404;149.120;2023-07-02T08:29:55;8.30;67.70
46123;DHT22;31856;-35.404;149.120;2023-07-02T08:32:26;8.30;67.70
46123;DHT22;31856;-35.404;149.120;2023-07-02T08:34:56;8.30;67.40
46123;DHT22;31856;-35.404;149.120;2023-07-02T08:37:26;8.30;67.50
46123;DHT22;31856;-35.404;149.120;2023-07-02T08:39:56;8.20;67.80
46123;DHT22;31856;-35.404;149.120;2023-07-02T08:42:25;8.20;67.80
46123;DHT22;31856;-35.404;149.120;2023-07-02T08:44:59;8.10;67.60
46123;DHT22;31856;-35.404;149.120;2023-07-02T08:47:29;8.10;67.40
46123;DHT22;31856;-35.404;149.120;2023-07-02T08:50:01;8.00;67.60
46123;DHT22;31856;-35.404;149.120;2023-07-02T08:52:31;7.90;67.90
46123;DHT22;31856;-35.404;149.120;2023-07-02T08:55:01;7.90;68.00
46123;DHT22;31856;-35.404;149.120;2023-07-02T08:57:30;7.90;68.30
46123;DHT22;31856;-35.404;149.120;2023-07-02T09:00:03;7.80;68.50
46123;DHT22;31856;-35.404;149.120;2023-07-02T09:02:34;7.80;68.80
46123;DHT22;31856;-35.404;149.120;2023-07-02T09:05:04;7.80;69.10
46123;DHT22;31856;-35.404;149.120;2023-07-02T09:07:43;7.70;69.50
46123;DHT22;31856;-35.404;149.120;2023-07-02T09:10:24;7.70;69.60
46123;DHT22;31856;-35.404;149.120;2023-07-02T09:13:05;7.70;69.70
46123;DHT22;31856;-35.404;149.120;2023-07-02T09:15:38;7.70;69.70
46123;DHT22;31856;-35.404;149.120;2023-07-02T09:18:18;7.60;69.90
46123;DHT22;31856;-35.404;149.120;2023-07-02T09:20:51;7.60;70.00
46123;DHT22;31856;-35.404;149.120;2023-07-02T09:23:21;7.60;70.30
46123;DHT22;31856;-35.404;149.120;2023-07-02T09:25:51;7.50;70.60
46123;DHT22;31856;-35.404;149.120;2023-07-02T09:28:23;7.40;70.90
46123;DHT22;31856;-35.404;149.120;2023-07-02T09:30:54;7.40;71.10
46123;DHT22;31856;-35.404;149.120;2023-07-02T09:33:24;7.40;71.10
46123;DHT22;31856;-35.404;149.120;2023-07-02T09:35:54;7.40;71.00
46123;DHT22;31856;-35.404;149.120;2023-07-02T09:38:24;7.30;71.00
46123;DHT22;31856;-35.404;149.120;2023-07-02T09:40:55;7.30;71.10
46123;DHT22;31856;-35.404;149.120;2023-07-02T09:43:25;7.30;71.20
46123;DHT22;31856;-35.404;149.120;2023-07-02T09:45:55;7.20;71.40
46123;DHT22;31856;-35.404;149.120;2023-07-02T09:48:25;7.20;71.50
46123;DHT22;31856;-35.404;149.120;2023-07-02T09:50:57;7.10;71.90
46123;DHT22;31856;-35.404;149.120;2023-07-02T09:53:27;7.10;72.30
46123;DHT22;31856;-35.404;149.120;2023-07-02T09:55:57;7.00;72.80
46123;DHT22;31856;-35.404;149.120;2023-07-02T09:58:27;7.00;73.20
46123;DHT22;31856;-35.404;149.120;2023-07-02T10:00:56;7.00;73.30
46123;DHT22;31856;-35.404;149.120;2023-07-02T10:03:30;6.90;73.40
46123;DHT22;31856;-35.404;149.120;2023-07-02T10:06:04;6.80;73.00
46123;DHT22;31856;-35.404;149.120;2023-07-02T10:08:35;6.80;73.30
46123;DHT22;31856;-35.404;149.120;2023-07-02T10:11:09;6.80;73.20
46123;DHT22;31856;-35.404;149.120;2023-07-02T10:13:39;6.70;73.20
46123;DHT22;31856;-35.404;149.120;2023-07-02T10:16:11;6.70;73.00
46123;DHT22;31856;-35.404;149.120;2023-07-02T10:18:41;6.70;73.10
46123;DHT22;31856;-35.404;149.120;2023-07-02T10:21:14;6.60;73.50
46123;DHT22;31856;-35.404;149.120;2023-07-02T10:23:44;6.60;73.60
46123;DHT22;31856;-35.404;149.120;2023-07-02T10:26:17;6.50;73.80
46123;DHT22;31856;-35.404;149.120;2023-07-02T10:28:59;6.50;73.90
46123;DHT22;31856;-35.404;149.120;2023-07-02T10:31:29;6.40;74.40
46123;DHT22;31856;-35.404;149.120;2023-07-02T10:33:59;6.40;74.30
46123;DHT22;31856;-35.404;149.120;2023-07-02T10:36:29;6.40;74.40
46123;DHT22;31856;-35.404;149.120;2023-07-02T10:39:02;6.40;74.30
46123;DHT22;31856;-35.404;149.120;2023-07-02T10:41:35;6.30;74.60
46123;DHT22;31856;-35.404;149.120;2023-07-02T10:44:05;6.30;74.80
46123;DHT22;31856;-35.404;149.120;2023-07-02T10:46:42;6.30;74.70
46123;DHT22;31856;-35.404;149.120;2023-07-02T10:49:12;6.30;74.60
46123;DHT22;31856;-35.404;149.120;2023-07-02T10:51:42;6.30;74.40
46123;DHT22;31856;-35.404;149.120;2023-07-02T10:54:11;6.30;74.40
46123;DHT22;31856;-35.404;149.120;2023-07-02T10:56:41;6.30;74.60
46123;DHT22;31856;-35.404;149.120;2023-07-02T10:59:12;6.30;74.80
46123;DHT22;31856;-35.404;149.120;2023-07-02T11:01:52;6.30;74.90
46123;DHT22;31856;-35.404;149.120;2023-07-02T11:04:23;6.20;75.00
46123;DHT22;31856;-35.404;149.120;2023-07-02T11:06:52;6.20;75.10
46123;DHT22;31856;-35.404;149.120;2023-07-02T11:09:22;6.10;74.80
46123;DHT22;31856;-35.404;149.120;2023-07-02T11:11:54;6.10;74.70
46123;DHT22;31856;-35.404;149.120;2023-07-02T11:14:28;6.00;74.80
46123;DHT22;31856;-35.404;149.120;2023-07-02T11:16:59;5.90;75.00
46123;DHT22;31856;-35.404;149.120;2023-07-02T11:19:31;6.00;75.00
46123;DHT22;31856;-35.404;149.120;2023-07-02T11:22:00;6.00;75.10
46123;DHT22;31856;-35.404;149.120;2023-07-02T11:24:32;5.90;75.10
46123;DHT22;31856;-35.404;149.120;2023-07-02T11:27:05;5.80;75.20
46123;DHT22;31856;-35.404;149.120;2023-07-02T11:29:35;5.80;75.30
46123;DHT22;31856;-35.404;149.120;2023-07-02T11:32:11;5.70;75.50
46123;DHT22;31856;-35.404;149.120;2023-07-02T11:34:41;5.70;76.10
46123;DHT22;31856;-35.404;149.120;2023-07-02T11:37:10;5.70;76.30
46123;DHT22;31856;-35.404;149.120;2023-07-02T11:39:42;5.70;76.20
46123;DHT22;31856;-35.404;149.120;2023-07-02T11:42:12;5.70;75.90
46123;DHT22;31856;-35.404;149.120;2023-07-02T11:44:41;5.60;76.20
46123;DHT22;31856;-35.404;149.120;2023-07-02T11:47:11;5.50;75.70
46123;DHT22;31856;-35.404;149.120;2023-07-02T11:49:40;5.40;75.90
46123;DHT22;31856;-35.404;149.120;2023-07-02T11:52:10;5.50;76.00
46123;DHT22;31856;-35.404;149.120;2023-07-02T11:54:41;5.40;76.40
46123;DHT22;31856;-35.404;149.120;2023-07-02T11:57:10;5.40;76.20
46123;DHT22;31856;-35.404;149.120;2023-07-02T11:59:41;5.40;76.40
46123;DHT22;31856;-35.404;149.120;2023-07-02T12:02:11;5.30;76.30
46123;DHT22;31856;-35.404;149.120;2023-07-02T12:04:40;5.30;76.00
46123;DHT22;31856;-35.404;149.120;2023-07-02T12:07:11;5.30;75.90
46123;DHT22;31856;-35.404;149.120;2023-07-02T12:09:42;5.30;75.90
46123;DHT22;31856;-35.404;149.120;2023-07-02T12:12:11;5.20;76.10
46123;DHT22;31856;-35.404;149.120;2023-07-02T12:14:41;5.20;76.40
46123;DHT22;31856;-35.404;149.120;2023-07-02T12:17:12;5.20;76.40
46123;DHT22;31856;-35.404;149.120;2023-07-02T12:19:43;5.20;76.40
46123;DHT22;31856;-35.404;149.120;2023-07-02T12:22:12;5.20;76.50
46123;DHT22;31856;-35.404;149.120;2023-07-02T12:24:45;5.20;76.10
46123;DHT22;31856;-35.404;149.120;2023-07-02T12:27:15;5.10;76.30
46123;DHT22;31856;-35.404;149.120;2023-07-02T12:29:45;5.10;76.20
46123;DHT22;31856;-35.404;149.120;2023-07-02T12:32:16;5.10;76.20
46123;DHT22;31856;-35.404;149.120;2023-07-02T12:34:45;5.00;76.20
46123;DHT22;31856;-35.404;149.120;2023-07-02T12:37:15;5.00;76.20
46123;DHT22;31856;-35.404;149.120;2023-07-02T12:39:46;4.90;76.60
46123;DHT22;31856;-35.404;149.120;2023-07-02T12:42:16;4.90;76.70
46123;DHT22;31856;-35.404;149.120;2023-07-02T12:44:46;4.90;76.30
46123;DHT22;31856;-35.404;149.120;2023-07-02T12:47:16;4.90;76.10
46123;DHT22;31856;-35.404;149.120;2023-07-02T12:49:46;4.90;76.10
46123;DHT22;31856;-35.404;149.120;2023-07-02T12:52:15;4.80;76.60
46123;DHT22;31856;-35.404;149.120;2023-07-02T12:54:46;4.80;76.90
46123;DHT22;31856;-35.404;149.120;2023-07-02T12:57:16;4.80;77.00
46123;DHT22;31856;-35.404;149.120;2023-07-02T12:59:47;4.80;77.00
46123;DHT22;31856;-35.404;149.120;2023-07-02T13:02:17;4.70;76.80
46123;DHT22;31856;-35.404;149.120;2023-07-02T13:04:47;4.70;76.90
46123;DHT22;31856;-35.404;149.120;2023-07-02T13:07:17;4.80;77.00
46123;DHT22;31856;-35.404;149.120;2023-07-02T13:09:47;4.70;77.40
46123;DHT22;31856;-35.404;149.120;2023-07-02T13:12:17;4.60;77.60
46123;DHT22;31856;-35.404;149.120;2023-07-02T13:14:47;4.50;77.70
46123;DHT22;31856;-35.404;149.120;2023-07-02T13:17:17;4.50;77.70
46123;DHT22;31856;-35.404;149.120;2023-07-02T13:19:47;4.50;77.60
46123;DHT22;31856;-35.404;149.120;2023-07-02T13:22:18;4.60;77.40
46123;DHT22;31856;-35.404;149.120;2023-07-02T13:24:47;4.50;77.10
46123;DHT22;31856;-35.404;149.120;2023-07-02T13:27:17;4.50;77.40
46123;DHT22;31856;-35.404;149.120;2023-07-02T13:29:48;4.40;77.60
46123;DHT22;31856;-35.404;149.120;2023-07-02T13:32:17;4.50;77.40
46123;DHT22;31856;-35.404;149.120;2023-07-02T13:34:47;4.50;77.40
46123;DHT22;31856;-35.404;149.120;2023-07-02T13:37:17;4.40;77.40
46123;DHT22;31856;-35.404;149.120;2023-07-02T13:39:50;4.40;77.70
46123;DHT22;31856;-35.404;149.120;2023-07-02T13:42:20;4.40;77.60
46123;DHT22;31856;-35.404;149.120;2023-07-02T13:44:49;4.40;77.80
46123;DHT22;31856;-35.404;149.120;2023-07-02T13:47:20;4.30;78.10
46123;DHT22;31856;-35.404;149.120;2023-07-02T13:49:50;4.30;77.80
46123;DHT22;31856;-35.404;149.120;2023-07-02T13:52:21;4.30;77.70
46123;DHT22;31856;-35.404;149.120;2023-07-02T13:54:51;4.30;77.80
46123;DHT22;31856;-35.404;149.120;2023-07-02T13:57:20;4.30;78.00
46123;DHT22;31856;-35.404;149.120;2023-07-02T13:59:50;4.30;78.20
46123;DHT22;31856;-35.404;149.120;2023-07-02T14:02:19;4.30;78.30
46123;DHT22;31856;-35.404;149.120;2023-07-02T14:04:49;4.30;78.10
46123;DHT22;31856;-35.404;149.120;2023-07-02T14:07:18;4.20;78.40
46123;DHT22;31856;-35.404;149.120;2023-07-02T14:09:48;4.20;78.20
46123;DHT22;31856;-35.404;149.120;2023-07-02T14:12:18;4.10;78.30
46123;DHT22;31856;-35.404;149.120;2023-07-02T14:14:47;4.20;78.20
46123;DHT22;31856;-35.404;149.120;2023-07-02T14:17:18;4.10;78.20
46123;DHT22;31856;-35.404;149.120;2023-07-02T14:19:52;4.10;78.40
46123;DHT22;31856;-35.404;149.120;2023-07-02T14:22:21;4.00;78.10
46123;DHT22;31856;-35.404;149.120;2023-07-02T14:24:51;3.90;78.20
46123;DHT22;31856;-35.404;149.120;2023-07-02T14:27:20;3.90;78.30
46123;DHT22;31856;-35.404;149.120;2023-07-02T14:29:50;3.90;78.50
46123;DHT22;31856;-35.404;149.120;2023-07-02T14:32:20;3.90;78.70
46123;DHT22;31856;-35.404;149.120;2023-07-02T14:34:50;3.80;78.70
46123;DHT22;31856;-35.404;149.120;2023-07-02T14:37:20;3.80;78.30
46123;DHT22;31856;-35.404;149.120;2023-07-02T14:39:50;3.80;78.30
46123;DHT22;31856;-35.404;149.120;2023-07-02T14:42:33;3.80;78.40
46123;DHT22;31856;-35.404;149.120;2023-07-02T14:45:04;3.80;78.50
46123;DHT22;31856;-35.404;149.120;2023-07-02T14:47:33;3.80;79.00
46123;DHT22;31856;-35.404;149.120;2023-07-02T14:50:03;3.80;78.60
46123;DHT22;31856;-35.404;149.120;2023-07-02T14:52:34;3.80;78.60
46123;DHT22;31856;-35.404;149.120;2023-07-02T14:55:05;3.80;79.00
46123;DHT22;31856;-35.404;149.120;2023-07-02T14:57:34;3.70;79.00
46123;DHT22;31856;-35.404;149.120;2023-07-02T15:00:04;3.70;78.70
46123;DHT22;31856;-35.404;149.120;2023-07-02T15:02:34;3.60;78.40
46123;DHT22;31856;-35.404;149.120;2023-07-02T15:05:04;3.60;78.10
46123;DHT22;31856;-35.404;149.120;2023-07-02T15:07:34;3.60;78.20
46123;DHT22;31856;-35.404;149.120;2023-07-02T15:10:04;3.60;78.30
46123;DHT22;31856;-35.404;149.120;2023-07-02T15:12:34;3.60;78.20
46123;DHT22;31856;-35.404;149.120;2023-07-02T15:15:04;3.50;78.70
46123;DHT22;31856;-35.404;149.120;2023-07-02T15:17:34;3.60;78.80
46123;DHT22;31856;-35.404;149.120;2023-07-02T15:20:04;3.60;78.90
46123;DHT22;31856;-35.404;149.120;2023-07-02T15:22:35;3.50;79.00
46123;DHT22;31856;-35.404;149.120;2023-07-02T15:25:05;3.40;78.70
46123;DHT22;31856;-35.404;149.120;2023-07-02T15:27:35;3.40;79.20
46123;DHT22;31856;-35.404;149.120;2023-07-02T15:30:06;3.40;79.50
46123;DHT22;31856;-35.404;149.120;2023-07-02T15:32:36;3.40;79.50
46123;DHT22;31856;-35.404;149.120;2023-07-02T15:35:06;3.40;79.50
46123;DHT22;31856;-35.404;149.120;2023-07-02T15:37:36;3.30;79.40
46123;DHT22;31856;-35.404;149.120;2023-07-02T15:40:05;3.40;79.00
46123;DHT22;31856;-35.404;149.120;2023-07-02T15:42:35;3.30;78.70
46123;DHT22;31856;-35.404;149.120;2023-07-02T15:45:05;3.30;78.60
46123;DHT22;31856;-35.404;149.120;2023-07-02T15:47:36;3.20;78.90
46123;DHT22;31856;-35.404;149.120;2023-07-02T15:50:06;3.20;79.20
46123;DHT22;31856;-35.404;149.120;2023-07-02T15:52:35;3.20;79.20
46123;DHT22;31856;-35.404;149.120;2023-07-02T15:55:05;3.30;79.00
46123;DHT22;31856;-35.404;149.120;2023-07-02T15:57:35;3.20;78.90
46123;DHT22;31856;-35.404;149.120;2023-07-02T16:00:05;3.10;78.90
46123;DHT22;31856;-35.404;149.120;2023-07-02T16:02:34;3.10;79.00
46123;DHT22;31856;-35.404;149.120;2023-07-02T16:05:04;3.10;79.20
46123;DHT22;31856;-35.404;149.120;2023-07-02T16:07:35;3.10;79.00
46123;DHT22;31856;-35.404;149.120;2023-07-02T16:10:07;3.10;79.10
46123;DHT22;31856;-35.404;149.120;2023-07-02T16:12:37;3.00;79.40
46123;DHT22;31856;-35.404;149.120;2023-07-02T16:15:08;3.00;79.30
46123;DHT22;31856;-35.404;149.120;2023-07-02T16:17:39;3.00;79.50
46123;DHT22;31856;-35.404;149.120;2023-07-02T16:20:09;3.00;79.30
46123;DHT22;31856;-35.404;149.120;2023-07-02T16:22:38;3.00;79.40
46123;DHT22;31856;-35.404;149.120;2023-07-02T16:25:08;3.00;79.70
46123;DHT22;31856;-35.404;149.120;2023-07-02T16:27:39;2.90;80.00
46123;DHT22;31856;-35.404;149.120;2023-07-02T16:30:08;3.00;80.00
46123;DHT22;31856;-35.404;149.120;2023-07-02T16:32:38;3.00;79.90
46123;DHT22;31856;-35.404;149.120;2023-07-02T16:35:07;3.00;79.60
46123;DHT22;31856;-35.404;149.120;2023-07-02T16:37:37;3.00;79.70
46123;DHT22;31856;-35.404;149.120;2023-07-02T16:40:08;3.00;80.00
46123;DHT22;31856;-35.404;149.120;2023-07-02T16:42:38;2.90;80.20
46123;DHT22;31856;-35.404;149.120;2023-07-02T16:45:07;2.80;80.20
46123;DHT22;31856;-35.404;149.120;2023-07-02T16:47:37;2.90;79.60
46123;DHT22;31856;-35.404;149.120;2023-07-02T16:50:07;2.90;79.40
46123;DHT22;31856;-35.404;149.120;2023-07-02T16:52:37;2.90;79.20
46123;DHT22;31856;-35.404;149.120;2023-07-02T16:55:06;2.90;79.40
46123;DHT22;31856;-35.404;149.120;2023-07-02T16:57:36;2.90;79.70
46123;DHT22;31856;-35.404;149.120;2023-07-02T17:00:06;2.90;79.70
46123;DHT22;31856;-35.404;149.120;2023-07-02T17:02:35;2.80;80.10
46123;DHT22;31856;-35.404;149.120;2023-07-02T17:05:05;2.80;80.00
46123;DHT22;31856;-35.404;149.120;2023-07-02T17:07:35;2.80;80.10
46123;DHT22;31856;-35.404;149.120;2023-07-02T17:10:04;2.80;80.00
46123;DHT22;31856;-35.404;149.120;2023-07-02T17:12:34;2.80;79.90
46123;DHT22;31856;-35.404;149.120;2023-07-02T17:15:04;2.80;79.90
46123;DHT22;31856;-35.404;149.120;2023-07-02T17:17:34;2.80;79.80
46123;DHT22;31856;-35.404;149.120;2023-07-02T17:20:03;2.80;79.80
46123;DHT22;31856;-35.404;149.120;2023-07-02T17:22:33;2.80;79.90
46123;DHT22;31856;-35.404;149.120;2023-07-02T17:25:03;2.80;80.50
46123;DHT22;31856;-35.404;149.120;2023-07-02T17:27:34;2.70;80.30
46123;DHT22;31856;-35.404;149.120;2023-07-02T17:30:05;2.70;80.10
46123;DHT22;31856;-35.404;149.120;2023-07-02T17:32:35;2.70;80.10
46123;DHT22;31856;-35.404;149.120;2023-07-02T17:35:05;2.60;80.00
46123;DHT22;31856;-35.404;149.120;2023-07-02T17:37:41;2.60;79.90
46123;DHT22;31856;-35.404;149.120;2023-07-02T17:40:12;2.60;80.00
46123;DHT22;31856;-35.404;149.120;2023-07-02T17:42:41;2.50;80.00
46123;DHT22;31856;-35.404;149.120;2023-07-02T17:45:11;2.50;79.90
46123;DHT22;31856;-35.404;149.120;2023-07-02T17:47:44;2.50;79.80
46123;DHT22;31856;-35.404;149.120;2023-07-02T17:50:14;2.50;79.90
46123;DHT22;31856;-35.404;149.120;2023-07-02T17:52:44;2.60;79.90
46123;DHT22;31856;-35.404;149.120;2023-07-02T17:55:14;2.50;80.30
46123;DHT22;31856;-35.404;149.120;2023-07-02T17:57:43;2.50;80.50
46123;DHT22;31856;-35.404;149.120;2023-07-02T18:00:14;2.50;80.60
46123;DHT22;31856;-35.404;149.120;2023-07-02T18:02:43;2.60;80.50
46123;DHT22;31856;-35.404;149.120;2023-07-02T18:05:14;2.60;80.10
46123;DHT22;31856;-35.404;149.120;2023-07-02T18:07:44;2.50;79.90
46123;DHT22;31856;-35.404;149.120;2023-07-02T18:10:13;2.40;80.20
46123;DHT22;31856;-35.404;149.120;2023-07-02T18:12:43;2.50;80.30
46123;DHT22;31856;-35.404;149.120;2023-07-02T18:15:13;2.40;80.10
46123;DHT22;31856;-35.404;149.120;2023-07-02T18:17:43;2.40;80.00
46123;DHT22;31856;-35.404;149.120;2023-07-02T18:20:12;2.40;80.40
46123;DHT22;31856;-35.404;149.120;2023-07-02T18:22:45;2.40;80.60
46123;DHT22;31856;-35.404;149.120;2023-07-02T18:25:14;2.40;80.50
46123;DHT22;31856;-35.404;149.120;2023-07-02T18:27:44;2.40;80.20
46123;DHT22;31856;-35.404;149.120;2023-07-02T18:30:13;2.40;80.40
46123;DHT22;31856;-35.404;149.120;2023-07-02T18:32:42;2.30;80.50
46123;DHT22;31856;-35.404;149.120;2023-07-02T18:35:12;2.30;80.30
46123;DHT22;31856;-35.404;149.120;2023-07-02T18:37:42;2.30;80.60
46123;DHT22;31856;-35.404;149.120;2023-07-02T18:40:12;2.30;80.80
46123;DHT22;31856;-35.404;149.120;2023-07-02T18:42:43;2.30;80.90
46123;DHT22;31856;-35.404;149.120;2023-07-02T18:45:15;2.30;80.90